BGBWCYMH

Guest
Details From BGBW - Narsarsuaq
To CYMH - Marys Harbour
Flight Number -
Tags generated
Created
Modified
Stats Distance 1,005 nm / 1,861 km
Max Altitude 34,000 ft / 10,363 m
Waypoints 7
Social Downloads 0
Likes 0
Share VATSIM

Download

Looking for another format? Having issues loading an existing format? Contact us
Advertisement - Login to hide

Notes

Basic altitude profile: - Ascent Rate: 2500ft/min - Ascent Speed: 250kts - Cruise Altitude: 35000ft - Cruise Speed: 420kts - Descent Rate: 1500ft/min - Descent Speed: 250kts

Route

BGBW OZN 5E20 YR AR38 CA CYMH

ID Type Via Altitude Latitude Longitude Leg Dist Tot Dist Heading (true) Name
O BGBW APT - 0 ft / 0 m 61.16052˚ -45.42598˚ - 0 nm - Narsarsuaq
OZN NDB - 33,500 ft / 10,211 m 60.05722˚ -43.15972˚ 94 nm 94 nm 134° / 136° PRINS CHRISTIAN SUND NDB
5850N FIX 5E20 (AWY-HI) 34,000 ft / 10,363 m 58.00000˚ -50.00000˚ 244 nm 338 nm 243° / 237° -
LOACH FIX 5E20 (AWY-HI) 34,000 ft / 10,363 m 55.51667˚ -57.01667˚ 274 nm 613 nm 240° / 234° -
YR NDB 5E20 (AWY-HI) 34,000 ft / 10,363 m 53.33833˚ -60.36667˚ 175 nm 789 nm 223° / 220° GOOSE NDB
CA NDB AR38 (AWY-LO) 17,000 ft / 5,182 m 53.70906˚ -57.02100˚ 121 nm 910 nm 78° / 81° CARTWRIGHT NDB
O CYMH APT - 0 ft / 0 m 52.30225˚ -55.84542˚ 94 nm 1005 nm 153° / 154° Marys Harbour

Altitude Profile

Advertisement - Login to hide

Weather


0- 5 10 15 20 25 30 35+ Temperature / ° C

Clouds and Precipitation
Forecast for 2018-05-21 18:00 UTC. Updated 4 hours ago

Ground ~20,000 ft ~40,000 ft Winds

BGBW

Details ICAO BGBW (UAK)
Name Narsarsuaq
Region Greenland
Timezone America/Godthab (UTC-2.0)
Stats Elevation 112 ft / 34 m (AMSL)
Location 61.160516° -45.425976°
Runways 1
Magnetic Variation 22.775° W

METAR

BGBW 211950Z 05027KT 9999 FEW065 BKN100 BKN140 07/M10 Q0991

Decode

TAF

Not found

Departure Runways

ID Width Length Bearing (true) Bearing (mag) Surface Threshold Offset Overrun Length
07 148 ft / 45 m 5,921 ft / 1,805 m 40.57° 63.35° Concrete 0 ft / 0 m 0 ft / 0 m
25 148 ft / 45 m 5,921 ft / 1,805 m 220.58° 243.36° Concrete 0 ft / 0 m 279 ft / 85 m

CYMH

Details ICAO CYMH (YMH)
Name Marys Harbour
Region Canada
Timezone America/St_Johns (UTC-2.5)
Stats Elevation 38 ft / 12 m (AMSL)
Location 52.302250° -55.845423°
Runways 1
Magnetic Variation 20.211° W

METAR

CYMH 212005Z AUTO 08008KT 9SM -SN OVC055 01/M02 A2969 RMK SLP058

Decode

TAF

TAF CYMH 211939Z 2120/2203 09012KT P6SM OVC060 TEMPO 2120/2121 P6SM -SHSNRA BKN020 OVC060 FM212100 07008KT P6SM BKN050 TEMPO 2121/2203 4SM -SHSN BKN015 RMK FCST BASED ON AUTO OBS. NXT FCST WILL BE ISSUED AT 220845Z

Decode

Destination Runways

ID Width Length Bearing (true) Bearing (mag) Surface Threshold Offset Overrun Length
11 98 ft / 30 m 2,549 ft / 777 m 85.00° 105.21° Gravel 0 ft / 0 m 0 ft / 0 m
29 98 ft / 30 m 2,549 ft / 777 m 265.01° 285.22° Gravel 0 ft / 0 m 0 ft / 0 m

Popular Alternatives